Time;durP1;ratioP1;P1;durP2;ratioP2;P2;SDS_P1;SDS_P2;PMS_P1;PMS_P2;Temp;Humidity;BMP_temperature;BMP_pressure;BME280_temperature;BME280_humidity;BME280_pressure;Samples;Min_cycle;Max_cycle;Signal;HPM_P1;HPM_P2
2022/12/24 00:00:07;;;;;;;3.90;2.33;;;12.00;99.90;;;;;;4996577;28;20030;-66
2022/12/24 00:02:35;;;;;;;2.70;1.65;;;12.10;99.90;;;;;;5012758;28;20120;-65
2022/12/24 00:05:01;;;;;;;1.70;1.20;;;12.00;99.90;;;;;;4995992;28;20030;-65
2022/12/24 00:07:29;;;;;;;8.02;3.65;;;12.10;99.90;;;;;;5013946;28;20045;-65
2022/12/24 00:09:56;;;;;;;4.22;2.60;;;12.10;99.90;;;;;;5014459;28;20040;-66
2022/12/24 00:12:25;;;;;;;3.22;1.73;;;12.00;99.90;;;;;;5013702;28;20041;-65
2022/12/24 00:14:51;;;;;;;5.90;2.30;;;12.00;99.90;;;;;;4995323;28;20058;-65
2022/12/24 00:17:19;;;;;;;19.88;6.50;;;12.10;99.90;;;;;;4996026;28;20034;-65
2022/12/24 00:19:44;;;;;;;33.20;12.15;;;12.10;99.90;;;;;;5013834;28;20037;-65
2022/12/24 00:22:11;;;;;;;7.57;3.30;;;12.00;99.90;;;;;;5013714;28;20117;-65
2022/12/24 00:24:37;;;;;;;2.95;1.30;;;12.10;99.90;;;;;;4995971;28;20049;-65
2022/12/24 00:27:04;;;;;;;2.80;1.50;;;12.10;99.90;;;;;;4995034;28;20513;-66
2022/12/24 00:29:31;;;;;;;126.85;50.65;;;12.00;99.90;;;;;;4996259;28;20493;-65
2022/12/24 00:31:57;;;;;;;55.80;23.20;;;12.00;99.90;;;;;;5014699;28;20506;-65
2022/12/24 00:34:24;;;;;;;70.97;29.33;;;12.00;99.90;;;;;;5012486;28;20512;-66
2022/12/24 00:36:50;;;;;;;45.33;20.20;;;12.00;99.90;;;;;;4994670;28;20037;-65
2022/12/24 00:39:16;;;;;;;96.88;41.28;;;12.00;99.90;;;;;;5011459;28;20385;-66
2022/12/24 00:41:43;;;;;;;15.35;6.30;;;12.00;99.90;;;;;;5011924;28;20145;-66
2022/12/24 00:44:13;;;;;;;7.85;3.50;;;12.00;99.90;;;;;;4994169;28;20034;-66
2022/12/24 00:46:40;;;;;;;3.67;1.80;;;12.00;99.90;;;;;;4994134;28;20081;-66
2022/12/24 00:49:07;;;;;;;3.92;1.98;;;12.00;99.90;;;;;;5012187;28;20042;-66
2022/12/24 00:51:34;;;;;;;5.75;1.50;;;12.00;99.90;;;;;;5013243;28;20038;-65
2022/12/24 00:54:00;;;;;;;5.60;1.40;;;12.00;99.90;;;;;;4994852;28;20140;-65
2022/12/24 00:56:31;;;;;;;3.28;1.73;;;12.10;99.90;;;;;;4995665;28;20045;-65
2022/12/24 00:58:56;;;;;;;4.18;1.20;;;12.10;99.90;;;;;;4996551;28;20045;-65
2022/12/24 01:01:23;;;;;;;2.83;1.08;;;12.10;99.90;;;;;;5012713;28;20034;-65
2022/12/24 01:03:50;;;;;;;1.20;0.88;;;12.10;99.90;;;;;;5014688;28;20037;-65
2022/12/24 01:06:21;;;;;;;2.65;1.20;;;12.00;99.90;;;;;;5012480;28;20060;-65
2022/12/24 01:08:50;;;;;;;1.58;0.82;;;12.10;99.90;;;;;;5012928;28;20401;-65
2022/12/24 01:11:16;;;;;;;1.63;0.75;;;12.10;99.90;;;;;;5012849;28;20033;-65
2022/12/24 01:13:43;;;;;;;1.02;0.73;;;12.10;99.90;;;;;;4995144;28;20527;-65
2022/12/24 01:16:18;;;;;;;4.35;1.70;;;12.00;99.90;;;;;;5012606;28;20073;-65
2022/12/24 01:18:44;;;;;;;1.85;1.00;;;12.00;99.90;;;;;;5012724;28;20076;-66
2022/12/24 01:21:13;;;;;;;2.00;1.00;;;11.90;99.90;;;;;;5012635;28;20081;-65
2022/12/24 01:23:39;;;;;;;1.60;0.90;;;11.90;99.90;;;;;;5013397;28;20030;-66
2022/12/24 01:26:06;;;;;;;2.15;1.15;;;11.90;99.90;;;;;;5010464;28;20140;-67
2022/12/24 01:28:32;;;;;;;1.33;0.70;;;11.90;99.90;;;;;;5012044;28;20180;-67
2022/12/24 01:30:58;;;;;;;2.63;0.60;;;11.80;99.90;;;;;;5012697;28;20037;-66
2022/12/24 01:33:28;;;;;;;0.77;0.57;;;11.80;99.90;;;;;;5013282;28;20052;-66
2022/12/24 01:35:54;;;;;;;0.65;0.50;;;11.80;99.90;;;;;;5013036;28;20135;-66
2022/12/24 01:38:20;;;;;;;0.98;0.50;;;11.80;99.90;;;;;;5011496;28;20038;-67
2022/12/24 01:43:32;;;;;;;0.70;0.45;;;11.80;99.90;;;;;;5012678;28;20176;-67
2022/12/24 01:46:10;;;;;;;1.20;1.00;;;11.80;99.90;;;;;;4996040;28;20131;-66
2022/12/24 01:48:57;;;;;;;2.00;0.60;;;11.70;99.90;;;;;;5012844;28;20041;-66
2022/12/24 01:51:24;;;;;;;1.25;0.30;;;11.70;99.90;;;;;;5012270;28;20483;-67
2022/12/24 01:53:57;;;;;;;1.00;0.65;;;11.70;99.90;;;;;;5012074;28;20132;-66
2022/12/24 01:56:28;;;;;;;3.28;1.23;;;11.70;99.90;;;;;;5011942;28;20049;-66
2022/12/24 01:58:59;;;;;;;1.30;0.60;;;11.70;99.90;;;;;;5012625;28;20045;-67
2022/12/24 02:01:25;;;;;;;0.30;0.30;;;11.70;99.90;;;;;;5012171;28;20638;-66
2022/12/24 02:03:53;;;;;;;0.82;0.50;;;11.70;99.90;;;;;;5011986;28;20391;-65
2022/12/24 02:06:20;;;;;;;0.85;0.52;;;11.80;99.90;;;;;;4994962;28;20060;-66
2022/12/24 02:08:48;;;;;;;1.48;0.50;;;11.80;99.90;;;;;;5012274;28;20050;-66
2022/12/24 02:11:18;;;;;;;1.15;0.60;;;11.70;99.90;;;;;;4993589;28;20457;-65
2022/12/24 02:13:51;;;;;;;0.63;0.30;;;11.80;99.90;;;;;;5013463;28;20066;-66
2022/12/24 02:16:46;;;;;;;1.30;0.60;;;11.80;99.90;;;;;;4994628;28;20397;-66
2022/12/24 02:19:55;;;;;;;13.70;5.45;;;11.80;99.90;;;;;;5011593;28;20167;-66
2022/12/24 02:23:00;;;;;;;8.45;3.95;;;11.70;99.90;;;;;;4994272;28;20393;-66
2022/12/24 02:25:44;;;;;;;2.22;1.20;;;11.70;99.90;;;;;;5011535;28;20120;-66
2022/12/24 02:28:33;;;;;;;1.23;0.60;;;11.70;99.90;;;;;;5011467;28;20046;-66
2022/12/24 02:31:10;;;;;;;36.30;15.38;;;11.70;99.90;;;;;;5011590;28;20044;-65
2022/12/24 02:33:48;;;;;;;4.82;2.92;;;11.60;99.90;;;;;;5011916;28;20535;-66
2022/12/24 02:36:47;;;;;;;4.45;1.67;;;11.40;99.90;;;;;;5011624;28;20139;-64
2022/12/24 02:39:23;;;;;;;3.50;1.33;;;11.20;99.90;;;;;;4996232;28;20045;-66
2022/12/24 02:42:07;;;;;;;3.10;1.20;;;11.20;99.90;;;;;;5008395;28;20052;-66
2022/12/24 02:44:38;;;;;;;1.15;0.80;;;11.30;99.90;;;;;;5012187;28;20050;-66
2022/12/24 02:47:11;;;;;;;1.38;0.68;;;11.40;99.90;;;;;;5011708;28;20472;-66
2022/12/24 02:49:37;;;;;;;20.80;7.60;;;11.50;99.90;;;;;;4997434;28;20137;-65
2022/12/24 02:52:04;;;;;;;2.90;1.83;;;11.50;99.90;;;;;;4997985;28;20384;-65
2022/12/24 02:54:30;;;;;;;1.65;0.80;;;11.50;99.90;;;;;;5016896;28;20409;-65
2022/12/24 02:57:07;;;;;;;5.25;2.55;;;11.60;99.90;;;;;;5016590;28;20030;-65
2022/12/24 03:00:06;;;;;;;11.57;5.22;;;11.50;99.90;;;;;;5015213;28;20119;-65
2022/12/24 03:03:01;;;;;;;7.45;3.35;;;11.50;99.90;;;;;;5015063;28;20034;-65
2022/12/24 03:05:48;;;;;;;2.47;1.20;;;11.50;99.90;;;;;;4998782;28;20068;-64
2022/12/24 03:08:44;;;;;;;2.95;0.70;;;11.20;99.90;;;;;;5017107;28;20044;-64
2022/12/24 03:11:14;;;;;;;1.42;0.70;;;11.20;99.90;;;;;;5016097;28;20077;-65
2022/12/24 03:13:43;;;;;;;;;;;11.30;99.90;;;;;;5015657;28;20406;-64
2022/12/24 03:16:16;;;;;;;0.63;0.50;;;11.50;99.90;;;;;;5014785;28;19910;-64
2022/12/24 03:18:45;;;;;;;1.08;0.60;;;11.60;99.90;;;;;;5014942;28;20033;-64
2022/12/24 03:21:33;;;;;;;1.00;0.50;;;11.60;99.90;;;;;;5014250;28;20034;-64
2022/12/24 03:24:00;;;;;;;0.95;0.32;;;11.60;99.90;;;;;;4997384;28;20511;-64
2022/12/24 03:26:28;;;;;;;0.77;0.50;;;11.60;99.90;;;;;;5014507;28;20034;-64
2022/12/24 03:28:54;;;;;;;2.25;0.60;;;11.60;99.90;;;;;;5015159;28;20029;-64
2022/12/24 03:31:22;;;;;;;1.90;0.77;;;11.50;99.90;;;;;;5014703;28;20041;-64
2022/12/24 03:33:51;;;;;;;2.28;0.85;;;11.40;99.90;;;;;;5014213;28;20144;-64
2022/12/24 03:36:17;;;;;;;2.80;0.85;;;11.40;99.90;;;;;;5014086;28;20127;-66
2022/12/24 03:38:43;;;;;;;2.45;0.80;;;11.40;99.90;;;;;;4998000;28;20034;-66
2022/12/24 03:41:10;;;;;;;0.82;0.60;;;11.40;99.90;;;;;;5016578;28;20064;-66
2022/12/24 03:43:36;;;;;;;1.00;0.80;;;11.40;99.90;;;;;;5015641;28;20497;-66
2022/12/24 03:46:07;;;;;;;1.15;0.80;;;11.30;99.90;;;;;;5013771;28;20057;-66
2022/12/24 03:48:34;;;;;;;1.40;0.80;;;11.30;99.90;;;;;;5011821;28;20269;-66
2022/12/24 03:51:00;;;;;;;1.42;0.88;;;11.30;99.90;;;;;;5014095;28;20030;-67
2022/12/24 03:53:27;;;;;;;1.10;0.82;;;11.30;99.90;;;;;;5014581;28;20050;-66
2022/12/24 03:55:55;;;;;;;1.05;0.70;;;11.30;99.90;;;;;;4980393;28;20042;-66
2022/12/24 03:58:21;;;;;;;1.17;0.77;;;11.30;99.90;;;;;;4981560;28;20042;-65
2022/12/24 04:00:51;;;;;;;3.97;0.80;;;11.40;99.90;;;;;;4994642;28;20034;-66
2022/12/24 04:03:18;;;;;;;1.20;0.90;;;11.40;99.90;;;;;;4994049;28;20038;-64
2022/12/24 04:05:44;;;;;;;2.00;1.10;;;11.40;99.90;;;;;;5010265;28;20405;-64
2022/12/24 04:08:12;;;;;;;6.97;3.08;;;11.40;99.90;;;;;;5015753;28;20045;-64
2022/12/24 04:10:37;;;;;;;2.83;1.63;;;11.40;99.90;;;;;;4998720;28;20524;-64
2022/12/24 04:13:04;;;;;;;5.03;2.38;;;11.20;99.90;;;;;;5013778;28;20041;-67
2022/12/24 04:15:31;;;;;;;4.00;1.80;;;11.30;99.90;;;;;;5014105;28;20153;-66
2022/12/24 04:17:58;;;;;;;2.13;1.00;;;11.40;99.90;;;;;;5014555;28;20038;-66
2022/12/24 04:20:24;;;;;;;0.88;0.60;;;11.40;99.90;;;;;;5011849;28;20071;-66
2022/12/24 04:22:52;;;;;;;1.65;0.68;;;11.40;99.90;;;;;;5013828;28;20493;-66
2022/12/24 04:25:17;;;;;;;1.70;0.82;;;11.30;99.90;;;;;;5013147;28;20049;-66
2022/12/24 04:27:43;;;;;;;2.15;0.73;;;11.30;99.90;;;;;;5013689;28;20069;-66
2022/12/24 04:30:10;;;;;;;1.25;0.90;;;11.30;99.90;;;;;;4996153;28;20449;-66
2022/12/24 04:32:35;;;;;;;1.65;0.60;;;11.30;99.90;;;;;;5013477;28;20041;-66
2022/12/24 04:35:04;;;;;;;1.65;0.70;;;11.30;99.90;;;;;;5013372;28;20053;-66
2022/12/24 04:37:32;;;;;;;0.90;0.60;;;11.30;99.90;;;;;;5013980;28;20037;-66
2022/12/24 04:39:57;;;;;;;1.38;0.55;;;11.30;99.90;;;;;;5013322;28;20413;-66
2022/12/24 04:42:23;;;;;;;0.82;0.68;;;11.30;99.90;;;;;;5012949;28;20076;-66
2022/12/24 04:44:50;;;;;;;0.80;0.60;;;11.30;99.90;;;;;;5013751;28;20072;-66
2022/12/24 04:47:16;;;;;;;1.10;0.70;;;11.30;99.90;;;;;;5013303;28;20454;-66
2022/12/24 04:49:43;;;;;;;2.38;0.40;;;11.30;99.90;;;;;;5013310;28;20132;-66
2022/12/24 04:52:09;;;;;;;3.65;0.93;;;11.30;99.90;;;;;;5012240;28;20128;-66
2022/12/24 04:54:34;;;;;;;1.30;0.70;;;11.30;99.90;;;;;;5012350;28;20093;-66
2022/12/24 04:57:00;;;;;;;1.25;0.70;;;11.20;99.90;;;;;;5013117;28;20030;-66
2022/12/24 04:59:26;;;;;;;1.08;0.68;;;11.10;99.90;;;;;;5013051;28;20405;-66
2022/12/24 05:01:52;;;;;;;1.30;0.82;;;11.00;99.90;;;;;;4995340;28;20076;-66
2022/12/24 05:04:18;;;;;;;1.40;0.50;;;11.00;99.90;;;;;;5011984;28;20069;-66
2022/12/24 05:06:45;;;;;;;1.05;0.52;;;11.10;99.90;;;;;;4995050;28;20556;-68
2022/12/24 05:09:13;;;;;;;1.00;0.68;;;11.00;99.90;;;;;;4995298;28;20049;-68
2022/12/24 05:11:42;;;;;;;1.23;0.60;;;11.00;99.90;;;;;;4995285;28;20096;-65
2022/12/24 05:14:08;;;;;;;1.10;0.50;;;11.00;99.90;;;;;;5012782;28;20053;-64
2022/12/24 05:16:33;;;;;;;1.15;0.60;;;11.00;99.90;;;;;;5012757;28;20042;-64
2022/12/24 05:19:00;;;;;;;1.27;0.73;;;10.90;99.90;;;;;;5013142;28;20042;-64
2022/12/24 05:21:27;;;;;;;0.52;0.50;;;10.90;99.90;;;;;;5013095;28;20045;-66
2022/12/24 05:26:54;;;;;;;0.90;0.60;;;10.90;99.90;;;;;;4978144;28;20567;-66
2022/12/24 05:29:20;;;;;;;2.53;1.27;;;10.90;99.90;;;;;;5005744;28;20088;-66
2022/12/24 05:31:48;;;;;;;1.10;0.68;;;10.90;99.90;;;;;;4994864;28;20068;-66
2022/12/24 05:34:16;;;;;;;2.10;0.90;;;10.90;99.90;;;;;;5011886;28;20080;-66
2022/12/24 05:36:45;;;;;;;1.48;1.10;;;10.90;99.90;;;;;;5012509;28;20112;-66
2022/12/24 05:39:17;;;;;;;1.73;0.60;;;10.90;99.90;;;;;;4995190;28;20057;-66
2022/12/24 05:41:48;;;;;;;0.80;0.50;;;10.80;99.90;;;;;;5013225;28;20033;-66
2022/12/24 05:44:15;;;;;;;2.58;0.80;;;10.80;99.90;;;;;;5012007;28;20572;-65
2022/12/24 05:46:41;;;;;;;0.77;0.65;;;10.80;99.90;;;;;;5012450;28;20048;-66
2022/12/24 05:49:07;;;;;;;0.80;0.50;;;10.80;99.90;;;;;;5012133;28;20501;-66
2022/12/24 05:51:33;;;;;;;1.02;0.60;;;10.80;99.90;;;;;;4995121;28;20247;-65
2022/12/24 05:53:59;;;;;;;1.70;0.65;;;10.60;99.90;;;;;;5013030;28;20452;-67
2022/12/24 05:56:25;;;;;;;3.58;0.80;;;10.50;99.90;;;;;;5012217;28;20080;-67
2022/12/24 05:58:53;;;;;;;1.58;0.93;;;10.50;99.90;;;;;;4978538;28;20060;-67
2022/12/24 06:01:24;;;;;;;4.05;1.05;;;10.60;99.90;;;;;;4994565;28;20087;-68
2022/12/24 06:03:52;;;;;;;1.48;0.70;;;10.60;99.90;;;;;;5004582;28;20536;-67
2022/12/24 06:06:23;;;;;;;0.90;0.68;;;10.70;99.90;;;;;;5011490;28;20555;-65
2022/12/24 06:08:50;;;;;;;1.42;0.73;;;10.80;99.90;;;;;;5013239;28;20044;-66
2022/12/24 06:11:19;;;;;;;0.47;0.40;;;10.80;99.90;;;;;;4994880;28;20029;-66
2022/12/24 06:13:45;;;;;;;1.88;0.98;;;10.80;99.90;;;;;;5011524;28;20112;-66
2022/12/24 06:16:17;;;;;;;0.93;0.63;;;10.70;99.90;;;;;;5013529;28;20038;-66
2022/12/24 06:18:43;;;;;;;0.88;0.50;;;10.70;99.90;;;;;;4995705;28;20141;-65
2022/12/24 06:21:10;;;;;;;1.55;0.50;;;10.70;99.90;;;;;;5011661;28;20034;-65
2022/12/24 06:23:37;;;;;;;1.85;0.57;;;10.70;99.90;;;;;;4996226;28;20088;-66
2022/12/24 06:26:05;;;;;;;0.52;0.32;;;10.60;99.90;;;;;;5017637;28;20049;-66
2022/12/24 06:28:36;;;;;;;1.88;0.50;;;10.60;99.90;;;;;;5000016;28;20053;-66
2022/12/24 06:31:06;;;;;;;0.60;0.40;;;10.70;99.90;;;;;;5012999;28;20042;-66
2022/12/24 06:33:33;;;;;;;1.10;1.00;;;10.70;99.90;;;;;;4998429;28;20417;-66
2022/12/24 06:35:59;;;;;;;1.83;0.43;;;10.80;99.90;;;;;;5017100;28;20489;-66
2022/12/24 06:38:25;;;;;;;0.98;0.30;;;10.80;99.90;;;;;;5015517;28;20063;-66
2022/12/24 06:40:52;;;;;;;1.13;0.93;;;10.80;99.90;;;;;;5015454;28;20129;-66
2022/12/24 06:43:17;;;;;;;1.30;0.80;;;10.90;99.90;;;;;;5015344;28;20396;-65
2022/12/24 06:45:45;;;;;;;4.38;0.90;;;10.70;99.90;;;;;;5015859;28;20101;-65
2022/12/24 06:48:12;;;;;;;1.88;0.65;;;10.70;99.90;;;;;;4997809;28;20061;-66
2022/12/24 06:50:38;;;;;;;1.25;0.70;;;10.60;99.90;;;;;;5014072;28;20504;-66
2022/12/24 06:53:04;;;;;;;0.90;0.50;;;10.70;99.90;;;;;;5018357;28;20045;-67
2022/12/24 06:55:36;;;;;;;1.20;0.80;;;10.80;99.90;;;;;;5017963;28;20065;-66
2022/12/24 06:58:05;;;;;;;1.13;0.60;;;10.40;99.90;;;;;;5026614;28;20049;-67
2022/12/24 07:00:32;;;;;;;1.50;0.90;;;10.40;99.90;;;;;;4997086;28;20425;-66
2022/12/24 07:02:58;;;;;;;1.33;0.70;;;10.30;99.90;;;;;;5011477;28;20404;-67
2022/12/24 07:05:24;;;;;;;1.48;1.00;;;10.30;99.90;;;;;;5027113;28;20112;-66
2022/12/24 07:07:50;;;;;;;1.77;0.90;;;10.30;99.90;;;;;;5015503;28;20504;-67
2022/12/24 07:10:17;;;;;;;1.30;0.80;;;10.30;99.90;;;;;;5014288;28;20037;-66
2022/12/24 07:12:44;;;;;;;0.68;0.60;;;10.30;99.90;;;;;;5015091;28;20096;-67
2022/12/24 07:15:10;;;;;;;1.13;0.68;;;10.30;99.90;;;;;;5015762;28;20057;-67
2022/12/24 07:17:42;;;;;;;1.08;0.50;;;10.40;99.90;;;;;;4999652;28;20466;-68
2022/12/24 07:20:18;;;;;;;1.10;0.60;;;10.40;99.90;;;;;;5016656;28;20034;-68
2022/12/24 07:22:56;;;;;;;1.00;0.68;;;10.40;99.90;;;;;;5017154;28;20037;-66
2022/12/24 07:25:22;;;;;;;0.43;0.30;;;10.50;99.90;;;;;;5013613;28;20603;-67
2022/12/24 07:27:48;;;;;;;2.90;0.70;;;10.50;99.90;;;;;;5017705;28;20508;-67
2022/12/24 07:30:17;;;;;;;0.65;0.50;;;10.50;99.90;;;;;;5014225;28;20049;-67
2022/12/24 07:32:43;;;;;;;1.67;0.82;;;11.00;99.90;;;;;;5015862;28;20046;-67
2022/12/24 07:35:10;;;;;;;1.48;0.50;;;10.50;99.90;;;;;;5013049;28;20053;-67
2022/12/24 07:37:38;;;;;;;4.00;0.73;;;10.50;99.90;;;;;;5017924;28;20124;-65
2022/12/24 07:40:06;;;;;;;2.50;0.45;;;10.50;99.90;;;;;;4996459;28;20038;-66
2022/12/24 07:42:37;;;;;;;3.67;0.60;;;10.50;99.90;;;;;;4996047;28;20145;-66
2022/12/24 07:45:05;;;;;;;1.63;0.90;;;10.50;99.90;;;;;;4999143;28;20429;-65
2022/12/24 07:47:31;;;;;;;1.23;0.90;;;10.50;99.90;;;;;;5012163;28;20041;-65
2022/12/24 07:49:58;;;;;;;0.85;0.60;;;10.40;99.90;;;;;;4997303;28;20049;-65
2022/12/24 07:52:24;;;;;;;0.88;0.52;;;10.40;99.90;;;;;;5011378;28;20045;-66
2022/12/24 07:54:51;;;;;;;1.08;0.43;;;10.30;99.90;;;;;;5000073;28;20156;-67
2022/12/24 07:57:17;;;;;;;1.30;0.70;;;10.30;99.90;;;;;;4994692;28;20034;-66
2022/12/24 07:59:43;;;;;;;1.92;0.70;;;10.30;99.90;;;;;;5014003;28;20133;-65
2022/12/24 08:02:10;;;;;;;2.17;0.98;;;10.30;99.90;;;;;;4994379;28;20042;-65
2022/12/24 08:04:36;;;;;;;1.35;0.98;;;10.40;99.90;;;;;;5011314;28;20044;-66
2022/12/24 08:07:09;;;;;;;2.60;0.90;;;10.50;99.90;;;;;;5012424;28;20091;-66
2022/12/24 08:09:37;;;;;;;1.50;0.68;;;10.50;99.90;;;;;;5013860;28;20041;-65
2022/12/24 08:12:04;;;;;;;2.08;0.95;;;10.50;99.90;;;;;;4997854;28;20133;-66
2022/12/24 08:14:32;;;;;;;1.63;1.00;;;10.40;99.90;;;;;;5014546;28;20132;-65
2022/12/24 08:17:01;;;;;;;4.25;1.15;;;10.40;99.90;;;;;;4999694;28;20042;-64
2022/12/24 08:19:29;;;;;;;3.28;1.10;;;10.40;99.90;;;;;;4976564;28;20042;-65
2022/12/24 08:21:56;;;;;;;2.25;1.20;;;10.40;99.90;;;;;;5012538;28;20072;-65
2022/12/24 08:24:22;;;;;;;1.33;0.95;;;10.40;99.90;;;;;;5004669;28;20493;-64
2022/12/24 08:26:48;;;;;;;2.17;1.13;;;10.50;99.90;;;;;;5012228;28;20038;-65
2022/12/24 08:29:14;;;;;;;2.08;1.00;;;10.50;99.90;;;;;;5014018;28;20072;-65
2022/12/24 08:31:41;;;;;;;2.88;1.38;;;10.50;99.90;;;;;;5018505;28;20045;-66
2022/12/24 08:34:09;;;;;;;1.75;1.27;;;10.50;99.90;;;;;;4987395;28;20457;-68
2022/12/24 08:36:35;;;;;;;4.68;1.20;;;10.50;99.90;;;;;;5016057;28;20037;-66
2022/12/24 08:39:07;;;;;;;2.40;1.35;;;10.60;99.90;;;;;;5013446;28;20042;-66
2022/12/24 08:41:33;;;;;;;2.13;1.30;;;10.60;99.90;;;;;;5019776;28;20070;-66
2022/12/24 08:44:00;;;;;;;1.90;1.30;;;10.60;99.90;;;;;;5009788;28;20026;-66
2022/12/24 08:46:26;;;;;;;3.92;1.40;;;10.60;99.90;;;;;;5010623;28;20136;-66
2022/12/24 08:48:52;;;;;;;4.18;1.67;;;10.60;99.90;;;;;;5008871;28;20034;-67
2022/12/24 08:51:19;;;;;;;2.60;1.45;;;10.60;99.90;;;;;;5023671;28;20171;-66
2022/12/24 08:53:45;;;;;;;2.58;1.20;;;10.60;99.90;;;;;;5023786;28;20042;-67
2022/12/24 08:56:12;;;;;;;5.15;1.50;;;10.60;99.90;;;;;;5011018;28;20125;-67
2022/12/24 08:58:38;;;;;;;2.33;1.17;;;10.70;99.90;;;;;;4995132;28;20504;-66
2022/12/24 09:01:14;;;;;;;1.52;1.10;;;10.70;99.90;;;;;;5011604;28;20081;-66
2022/12/24 09:03:41;;;;;;;3.40;1.88;;;10.70;99.90;;;;;;5010864;28;20033;-66
2022/12/24 09:06:07;;;;;;;4.05;1.60;;;10.80;99.90;;;;;;5010505;28;20042;-65
2022/12/24 09:08:33;;;;;;;4.75;1.65;;;10.90;99.90;;;;;;5010417;28;20046;-65
2022/12/24 09:11:12;;;;;;;4.32;1.50;;;10.90;99.90;;;;;;5009652;28;20049;-66
2022/12/24 09:13:38;;;;;;;3.13;1.83;;;10.90;99.90;;;;;;5010036;28;20049;-66
2022/12/24 09:16:04;;;;;;;4.85;1.63;;;10.90;99.90;;;;;;5012512;28;20049;-65
2022/12/24 09:18:33;;;;;;;3.28;1.63;;;10.90;99.90;;;;;;5013803;28;20034;-65
2022/12/24 09:21:16;;;;;;;2.88;1.80;;;10.90;99.90;;;;;;5012785;28;20101;-65
2022/12/24 09:23:44;;;;;;;3.20;1.80;;;11.00;99.90;;;;;;5010758;28;20528;-66
2022/12/24 09:26:18;;;;;;;3.45;2.30;;;10.90;99.90;;;;;;4993772;28;20121;-65
2022/12/24 09:28:44;;;;;;;4.95;2.08;;;10.90;99.90;;;;;;5012775;28;20076;-65
2022/12/24 09:31:11;;;;;;;2.35;1.65;;;10.90;99.90;;;;;;4994623;28;20567;-65
2022/12/24 09:33:39;;;;;;;3.88;2.30;;;11.00;99.90;;;;;;4978369;28;20472;-65
2022/12/24 09:36:09;;;;;;;7.72;2.47;;;11.10;99.90;;;;;;5011325;28;20385;-65
2022/12/24 09:38:45;;;;;;;4.65;2.42;;;11.10;99.90;;;;;;4995437;28;20034;-65
2022/12/24 09:41:21;;;;;;;5.82;2.20;;;11.10;99.90;;;;;;4992888;28;20528;-65
2022/12/24 09:43:59;;;;;;;6.20;2.00;;;11.20;99.90;;;;;;5010096;28;20050;-65
2022/12/24 09:46:39;;;;;;;5.40;2.90;;;11.20;99.90;;;;;;5009336;28;20049;-65
2022/12/24 09:49:14;;;;;;;6.05;3.33;;;11.30;99.90;;;;;;5010488;28;20531;-65
2022/12/24 09:51:44;;;;;;;6.75;3.40;;;11.30;99.90;;;;;;4993428;28;20045;-65
2022/12/24 09:54:23;;;;;;;;;;;11.30;99.90;;;;;;5011368;28;20156;-62
2022/12/24 09:56:54;;;;;;;6.13;3.50;;;11.30;99.90;;;;;;5011435;28;19937;-64
2022/12/24 09:59:23;;;;;;;2.85;2.20;;;11.30;99.90;;;;;;5009362;28;20037;-64
2022/12/24 10:01:52;;;;;;;2.25;1.88;;;11.30;99.90;;;;;;5008013;28;20030;-64
2022/12/24 10:04:22;;;;;;;3.05;1.98;;;11.20;99.90;;;;;;5005955;28;20056;-64
2022/12/24 10:06:57;;;;;;;5.78;2.60;;;11.10;99.90;;;;;;5008996;28;20044;-64
2022/12/24 10:09:35;;;;;;;3.97;2.78;;;11.10;99.90;;;;;;5009640;28;20048;-64
2022/12/24 10:12:36;;;;;;;7.05;3.10;;;11.00;99.90;;;;;;5012920;28;20603;-64
2022/12/24 10:15:24;;;;;;;5.13;3.13;;;11.00;99.90;;;;;;4994308;28;20076;-64
2022/12/24 10:18:15;;;;;;;4.85;3.00;;;11.10;99.90;;;;;;5010192;28;20528;-64
2022/12/24 10:20:51;;;;;;;5.28;3.55;;;11.10;99.90;;;;;;4982528;28;20109;-64
2022/12/24 10:23:27;;;;;;;4.03;2.75;;;11.10;99.90;;;;;;5005371;28;20041;-65
2022/12/24 10:26:19;;;;;;;5.53;3.33;;;11.10;99.90;;;;;;5011191;28;20041;-64
2022/12/24 10:28:53;;;;;;;7.20;3.58;;;11.20;99.90;;;;;;5011013;28;20033;-64
2022/12/24 10:31:25;;;;;;;8.57;3.75;;;11.10;99.90;;;;;;5011015;28;20125;-64
2022/12/24 10:34:00;;;;;;;5.07;3.50;;;11.20;99.90;;;;;;5008243;28;20173;-64
2022/12/24 10:36:31;;;;;;;7.10;3.70;;;11.10;99.90;;;;;;5009137;28;20103;-64
2022/12/24 10:38:58;;;;;;;7.97;4.35;;;11.10;99.90;;;;;;5009624;28;20077;-63
2022/12/24 10:41:26;;;;;;;5.65;3.40;;;11.10;99.90;;;;;;5011004;28;20103;-64
2022/12/24 10:43:53;;;;;;;6.05;3.40;;;11.10;99.90;;;;;;4974188;28;20045;-65
2022/12/24 10:46:34;;;;;;;7.90;4.30;;;11.10;99.90;;;;;;5007710;28;20125;-64
2022/12/24 10:49:04;;;;;;;7.07;4.05;;;11.20;99.90;;;;;;5011252;28;20113;-64
2022/12/24 10:51:51;;;;;;;6.18;4.05;;;11.30;99.90;;;;;;5010188;28;20486;-64
2022/12/24 10:54:23;;;;;;;6.78;3.65;;;11.30;99.90;;;;;;5011082;28;20080;-64
2022/12/24 10:56:56;;;;;;;9.27;3.88;;;11.30;99.90;;;;;;4993577;28;20072;-64
2022/12/24 10:59:25;;;;;;;7.72;3.90;;;11.30;99.90;;;;;;5008097;28;20084;-63
2022/12/24 11:01:52;;;;;;;6.07;3.55;;;11.30;99.90;;;;;;5011493;28;20038;-64
2022/12/24 11:04:24;;;;;;;7.40;4.00;;;11.30;99.90;;;;;;5010102;28;20038;-65
2022/12/24 11:07:05;;;;;;;7.57;4.28;;;11.40;99.90;;;;;;5008366;28;20041;-64
2022/12/24 11:09:42;;;;;;;6.13;3.70;;;;;;;;;;5009830;28;20490;-64
2022/12/24 11:12:22;;;;;;;5.78;3.38;;;11.50;99.90;;;;;;5010650;28;20512;-65
2022/12/24 11:15:20;;;;;;;6.18;2.95;;;11.60;99.90;;;;;;5013334;28;20056;-65
2022/12/24 11:18:16;;;;;;;5.32;2.95;;;11.40;99.90;;;;;;5013526;28;20033;-65
2022/12/24 11:20:50;;;;;;;9.20;3.90;;;11.40;99.90;;;;;;4995474;28;20038;-65
2022/12/24 11:23:16;;;;;;;6.07;3.03;;;11.30;99.90;;;;;;5012689;28;20049;-64
2022/12/24 11:25:49;;;;;;;5.78;3.53;;;11.40;99.90;;;;;;5012338;28;20115;-65
2022/12/24 11:28:34;;;;;;;6.80;4.15;;;11.40;99.90;;;;;;5011706;28;20034;-65
2022/12/24 11:31:18;;;;;;;7.38;3.60;;;11.40;99.90;;;;;;5001053;28;20057;-64
2022/12/24 11:33:51;;;;;;;6.57;3.67;;;11.50;99.90;;;;;;5013167;28;20417;-64
2022/12/24 11:36:22;;;;;;;6.93;3.97;;;11.50;99.90;;;;;;5012377;28;20044;-64
2022/12/24 11:38:53;;;;;;;7.80;4.60;;;11.60;99.90;;;;;;5012268;28;20046;-65
2022/12/24 11:41:44;;;;;;;10.07;5.75;;;11.60;99.90;;;;;;5008925;28;20441;-66
2022/12/24 11:44:11;;;;;;;6.55;4.13;;;11.50;99.90;;;;;;5010747;28;20041;-66
2022/12/24 11:46:45;;;;;;;5.25;3.85;;;11.60;99.90;;;;;;5012320;28;20119;-66
2022/12/24 11:49:28;;;;;;;6.82;3.22;;;11.60;99.90;;;;;;5012272;28;20049;-66
2022/12/24 11:52:20;;;;;;;5.70;3.00;;;11.60;99.90;;;;;;4992418;28;20052;-66
2022/12/24 11:55:28;;;;;;;7.45;4.10;;;11.60;99.90;;;;;;5006147;28;20469;-66
2022/12/24 11:58:00;;;;;;;4.07;2.90;;;11.70;99.90;;;;;;4995295;28;20042;-66
2022/12/24 12:00:28;;;;;;;4.78;3.15;;;11.70;99.90;;;;;;5012518;28;20041;-66
2022/12/24 12:03:00;;;;;;;3.88;2.80;;;11.80;99.90;;;;;;5007659;28;20100;-65
2022/12/24 12:05:35;;;;;;;6.47;3.55;;;11.80;99.90;;;;;;4994471;28;20042;-66
2022/12/24 12:08:17;;;;;;;4.47;2.63;;;11.90;99.90;;;;;;5013116;28;20500;-66
2022/12/24 12:10:51;;;;;;;9.50;3.40;;;11.90;99.90;;;;;;5007207;28;20847;-65
2022/12/24 12:13:23;;;;;;;7.10;4.03;;;12.00;99.90;;;;;;4994456;28;20046;-66
2022/12/24 12:16:06;;;;;;;5.30;3.42;;;12.00;99.90;;;;;;5001171;28;20038;-66
2022/12/24 12:18:39;;;;;;;6.32;3.42;;;12.10;99.90;;;;;;5008712;28;20049;-66
2022/12/24 12:21:31;;;;;;;7.97;4.18;;;12.10;99.90;;;;;;5009749;28;20493;-66
2022/12/24 12:24:20;;;;;;;11.15;5.55;;;12.10;99.90;;;;;;5009764;28;20049;-66
2022/12/24 12:26:48;;;;;;;7.90;4.97;;;12.10;99.90;;;;;;5010195;28;20046;-66
2022/12/24 12:29:37;;;;;;;8.98;5.63;;;12.10;99.90;;;;;;5012303;28;20068;-66
2022/12/24 12:32:13;;;;;;;12.48;6.47;;;12.20;99.90;;;;;;5011088;28;20046;-66
2022/12/24 12:35:01;;;;;;;9.48;5.55;;;12.20;99.90;;;;;;5011602;28;20125;-66
2022/12/24 12:37:57;;;;;;;10.05;5.93;;;12.30;99.90;;;;;;5006071;28;20037;-66
2022/12/24 12:40:34;;;;;;;11.40;6.93;;;12.40;99.90;;;;;;5002456;28;20041;-66
2022/12/24 12:43:29;;;;;;;11.45;6.38;;;12.60;99.90;;;;;;5012495;28;20041;-66
2022/12/24 12:46:15;;;;;;;11.75;6.55;;;12.60;99.90;;;;;;5013637;28;20044;-66
2022/12/24 12:49:11;;;;;;;18.13;9.10;;;12.50;99.90;;;;;;5013169;28;20034;-66
2022/12/24 12:52:08;;;;;;;17.42;8.75;;;12.40;99.90;;;;;;5012705;28;20037;-66
2022/12/24 12:55:01;;;;;;;13.35;7.75;;;12.40;99.90;;;;;;5006759;28;20054;-65
2022/12/24 12:57:33;;;;;;;13.80;7.13;;;12.40;99.90;;;;;;5012577;28;20099;-66
2022/12/24 13:00:04;;;;;;;15.10;7.25;;;12.30;99.90;;;;;;5013207;28;20136;-66
2022/12/24 13:02:49;;;;;;;12.50;7.68;;;12.30;99.90;;;;;;5004591;28;20053;-66
2022/12/24 13:05:26;;;;;;;17.35;9.80;;;12.20;99.90;;;;;;5008944;28;20038;-65
2022/12/24 13:08:17;;;;;;;13.95;7.45;;;12.20;99.90;;;;;;5012049;28;20045;-65
2022/12/24 13:11:16;;;;;;;11.63;6.85;;;12.20;99.90;;;;;;5012677;28;20041;-66
2022/12/24 13:14:00;;;;;;;10.55;6.07;;;12.10;99.90;;;;;;5012020;28;20485;-65